createdAt,value
2023-05-15T00:00:39.775Z,10.10
2023-05-15T00:03:28.333Z,10.00
2023-05-15T00:06:16.021Z,10.00
2023-05-15T00:09:04.233Z,10.00
2023-05-15T00:11:53.725Z,10.00
2023-05-15T00:14:41.504Z,9.90
2023-05-15T00:17:29.843Z,8.10
2023-05-15T00:20:25.038Z,9.90
2023-05-15T00:23:12.993Z,9.90
2023-05-15T00:26:01.009Z,9.80
2023-05-15T00:28:50.231Z,9.80
2023-05-15T00:31:37.922Z,9.80
2023-05-15T00:34:27.894Z,9.80
2023-05-15T00:37:15.563Z,9.40
2023-05-15T00:40:04.710Z,9.60
2023-05-15T00:42:52.560Z,10.10
2023-05-15T00:45:43.640Z,9.70
2023-05-15T00:48:31.264Z,9.60
2023-05-15T00:51:18.963Z,9.60
2023-05-15T00:54:08.619Z,9.60
2023-05-15T00:56:58.254Z,9.60
2023-05-15T00:59:46.814Z,8.30
2023-05-15T01:02:36.236Z,9.60
2023-05-15T01:05:24.178Z,9.50
2023-05-15T01:08:15.929Z,9.60
2023-05-15T01:11:05.558Z,9.60
2023-05-15T01:13:53.632Z,9.60
2023-05-15T01:16:41.755Z,9.60
2023-05-15T01:19:31.041Z,9.50
2023-05-15T01:22:24.449Z,9.50
2023-05-15T01:25:28.818Z,9.50
2023-05-15T01:28:20.187Z,9.50
2023-05-15T01:31:15.896Z,9.50
2023-05-15T01:34:04.374Z,9.80
2023-05-15T01:36:57.666Z,9.50
2023-05-15T01:39:46.524Z,9.50
2023-05-15T01:42:35.956Z,9.60
2023-05-15T01:45:26.571Z,9.50
2023-05-15T01:48:16.956Z,9.50
2023-05-15T01:51:06.120Z,9.50
2023-05-15T01:53:54.368Z,9.50
2023-05-15T01:56:45.318Z,9.50
2023-05-15T01:59:33.709Z,9.50
2023-05-15T02:02:25.336Z,9.50
2023-05-15T02:05:18.606Z,9.50
2023-05-15T02:08:08.111Z,9.50
2023-05-15T02:10:56.632Z,9.50
2023-05-15T02:13:44.599Z,9.50
2023-05-15T02:16:32.532Z,9.50
2023-05-15T02:19:21.526Z,9.60
2023-05-15T02:22:09.697Z,9.60
2023-05-15T02:24:57.227Z,9.60
2023-05-15T02:27:49.977Z,9.60
2023-05-15T02:30:41.986Z,9.60
2023-05-15T02:33:32.875Z,9.90
2023-05-15T02:36:24.070Z,9.50
2023-05-15T02:39:12.677Z,9.80
2023-05-15T02:42:02.799Z,9.50
2023-05-15T02:44:51.571Z,9.50
2023-05-15T02:47:39.690Z,9.40
2023-05-15T02:50:27.493Z,9.30
2023-05-15T02:53:16.434Z,9.30
2023-05-15T02:56:05.114Z,9.30
2023-05-15T02:58:52.978Z,9.30
2023-05-15T03:01:41.805Z,9.20
2023-05-15T03:04:29.346Z,9.20
2023-05-15T03:07:16.892Z,9.20
2023-05-15T03:10:06.978Z,9.20
2023-05-15T03:12:54.265Z,9.10
2023-05-15T03:15:41.889Z,9.00
2023-05-15T03:18:31.816Z,8.90
2023-05-15T03:21:19.604Z,8.90
2023-05-15T03:24:08.757Z,8.90
2023-05-15T03:26:57.543Z,9.10
2023-05-15T03:29:45.926Z,8.90
2023-05-15T03:32:33.380Z,8.90
2023-05-15T03:35:21.989Z,8.90
2023-05-15T03:38:09.619Z,8.80
2023-05-15T03:40:57.476Z,8.50
2023-05-15T03:43:46.381Z,8.70
2023-05-15T03:46:34.653Z,8.80
2023-05-15T03:49:23.312Z,8.80
2023-05-15T03:52:11.573Z,8.70
2023-05-15T03:54:59.232Z,8.70
2023-05-15T03:57:47.554Z,8.90
2023-05-15T04:00:36.746Z,8.80
2023-05-15T04:03:24.988Z,8.80
2023-05-15T04:06:13.171Z,8.80
2023-05-15T04:09:01.148Z,8.80
2023-05-15T04:11:48.511Z,8.70
2023-05-15T04:14:36.630Z,9.30
2023-05-15T04:17:26.755Z,8.80
2023-05-15T04:20:15.598Z,8.80
2023-05-15T04:23:04.132Z,8.80
2023-05-15T04:25:53.842Z,8.80
2023-05-15T04:28:56.206Z,8.80
2023-05-15T04:31:51.409Z,8.90
2023-05-15T04:34:41.491Z,8.90
2023-05-15T04:37:29.662Z,8.90
2023-05-15T04:40:17.695Z,8.90
2023-05-15T04:43:06.068Z,9.00
2023-05-15T04:45:54.246Z,9.00
2023-05-15T04:48:42.337Z,8.90
2023-05-15T04:51:31.632Z,8.80
2023-05-15T04:54:19.433Z,8.90
2023-05-15T04:57:07.857Z,8.80
2023-05-15T04:59:56.074Z,8.90
2023-05-15T05:02:44.364Z,8.90
2023-05-15T05:05:32.120Z,8.90
2023-05-15T05:08:21.395Z,8.90
2023-05-15T05:11:09.546Z,9.00
2023-05-15T05:13:57.009Z,9.10
2023-05-15T05:16:49.116Z,9.10
2023-05-15T05:19:37.186Z,9.10
2023-05-15T05:22:27.182Z,9.10
2023-05-15T05:25:16.386Z,9.20
2023-05-15T05:28:04.054Z,9.20
2023-05-15T05:30:51.359Z,9.20
2023-05-15T05:33:39.085Z,9.20
2023-05-15T05:36:27.257Z,9.20
2023-05-15T05:39:14.878Z,9.20
2023-05-15T05:42:04.107Z,9.30
2023-05-15T05:44:51.475Z,9.20
2023-05-15T05:47:41.367Z,9.20
2023-05-15T05:50:29.699Z,9.20
2023-05-15T05:53:20.110Z,9.30
2023-05-15T05:56:08.536Z,9.40
2023-05-15T05:58:59.825Z,7.50
2023-05-15T06:02:06.442Z,9.30
2023-05-15T06:04:57.148Z,9.40
2023-05-15T06:07:44.526Z,9.00
2023-05-15T06:10:33.839Z,9.50
2023-05-15T06:13:22.410Z,9.40
2023-05-15T06:16:13.665Z,9.50
2023-05-15T06:19:02.237Z,9.50
2023-05-15T06:21:49.991Z,9.60
2023-05-15T06:24:37.270Z,9.60
2023-05-15T06:27:26.620Z,9.60
2023-05-15T06:30:15.321Z,9.60
2023-05-15T06:33:04.307Z,9.60
2023-05-15T06:35:52.253Z,9.70
2023-05-15T06:38:40.173Z,9.70
2023-05-15T06:41:28.110Z,9.70
2023-05-15T06:44:16.528Z,9.60
2023-05-15T06:47:04.782Z,11.20
2023-05-15T06:49:54.898Z,9.80
2023-05-15T06:52:43.020Z,9.80
2023-05-15T06:55:31.043Z,9.70
2023-05-15T06:58:19.463Z,9.80
2023-05-15T07:01:07.337Z,9.90
2023-05-15T07:03:54.750Z,10.50
2023-05-15T07:06:44.542Z,10.00
2023-05-15T07:09:32.306Z,10.00
2023-05-15T07:12:20.300Z,10.10
2023-05-15T07:15:08.975Z,10.30
2023-05-15T07:17:57.173Z,10.40
2023-05-15T07:20:45.354Z,10.50
2023-05-15T07:23:35.097Z,10.60
2023-05-15T07:26:32.856Z,10.70
2023-05-15T07:29:24.183Z,10.80
2023-05-15T07:32:12.384Z,10.90
2023-05-15T07:35:00.487Z,11.00
2023-05-15T07:37:48.317Z,11.10
2023-05-15T07:40:37.267Z,11.20
2023-05-15T07:43:24.402Z,11.10
2023-05-15T07:46:12.845Z,11.10
2023-05-15T07:49:02.689Z,11.00
2023-05-15T07:51:50.145Z,10.90
2023-05-15T07:54:39.640Z,12.10
2023-05-15T07:57:28.344Z,10.90
2023-05-15T08:00:16.039Z,11.00
2023-05-15T08:03:03.764Z,11.00
2023-05-15T08:05:51.970Z,11.30
2023-05-15T08:08:40.707Z,11.60
2023-05-15T08:11:28.573Z,11.90
2023-05-15T08:14:18.219Z,12.10
2023-05-15T08:17:06.317Z,12.10
2023-05-15T08:19:57.328Z,12.20
2023-05-15T08:22:44.830Z,12.50
2023-05-15T08:25:32.465Z,12.90
2023-05-15T08:28:21.008Z,13.10
2023-05-15T08:31:09.756Z,12.70
2023-05-15T08:33:56.982Z,12.50
2023-05-15T08:36:47.319Z,12.40
2023-05-15T08:39:35.042Z,12.40
2023-05-15T08:42:27.644Z,12.30
2023-05-15T08:45:15.277Z,12.40
2023-05-15T08:48:08.022Z,12.60
2023-05-15T08:50:58.613Z,14.30
2023-05-15T08:53:46.903Z,12.70
2023-05-15T08:56:35.132Z,13.00
2023-05-15T08:59:23.410Z,13.10
2023-05-15T09:02:10.859Z,13.20
2023-05-15T09:05:00.930Z,13.40
2023-05-15T09:07:48.653Z,13.60
2023-05-15T09:10:37.643Z,11.70
2023-05-15T09:13:25.772Z,14.00
2023-05-15T09:16:13.126Z,14.40
2023-05-15T09:19:01.721Z,14.60
2023-05-15T09:21:51.074Z,14.70
2023-05-15T09:24:42.444Z,14.80
2023-05-15T09:27:30.518Z,14.90
2023-05-15T09:30:25.989Z,15.00
2023-05-15T09:33:13.497Z,15.00
2023-05-15T09:36:02.006Z,15.10
2023-05-15T09:38:59.151Z,15.30
2023-05-15T09:41:47.818Z,15.20
2023-05-15T09:44:36.435Z,15.00
2023-05-15T09:47:23.824Z,15.20
2023-05-15T09:50:12.259Z,15.00
2023-05-15T09:53:00.293Z,15.00
2023-05-15T09:55:52.937Z,15.00
2023-05-15T09:58:53.276Z,15.00
2023-05-15T10:01:44.961Z,15.00
2023-05-15T10:04:58.115Z,14.70
2023-05-15T10:07:46.260Z,14.40
2023-05-15T10:10:34.420Z,14.30
2023-05-15T10:13:24.327Z,14.50
2023-05-15T10:16:12.787Z,14.60
2023-05-15T10:19:04.326Z,15.00
2023-05-15T10:21:54.111Z,15.20
2023-05-15T10:24:42.680Z,15.60
2023-05-15T10:27:31.775Z,15.70
2023-05-15T10:30:21.477Z,15.60
2023-05-15T10:33:09.952Z,15.60
2023-05-15T10:35:59.087Z,15.80
2023-05-15T10:38:47.545Z,16.30
2023-05-15T10:41:38.242Z,15.70
2023-05-15T10:44:26.236Z,15.40
2023-05-15T10:47:14.962Z,16.00
2023-05-15T10:50:02.524Z,15.80
2023-05-15T10:52:52.636Z,16.10
2023-05-15T10:55:40.208Z,16.20
2023-05-15T10:58:27.781Z,16.20
2023-05-15T11:01:29.660Z,16.50
2023-05-15T11:04:20.467Z,16.50
2023-05-15T11:07:15.097Z,16.20
2023-05-15T11:10:23.411Z,17.40
2023-05-15T11:13:12.339Z,15.50
2023-05-15T11:16:00.439Z,15.80
2023-05-15T11:18:48.112Z,15.40
2023-05-15T11:21:46.311Z,15.30
2023-05-15T11:24:48.793Z,16.00
2023-05-15T11:27:43.252Z,14.70
2023-05-15T11:30:38.205Z,14.70
2023-05-15T11:33:26.280Z,14.80
2023-05-15T11:36:16.098Z,14.70
2023-05-15T11:39:12.700Z,14.60
2023-05-15T11:42:12.032Z,14.50
2023-05-15T11:44:59.482Z,14.30
2023-05-15T11:47:47.612Z,14.30
2023-05-15T11:50:36.583Z,14.00
2023-05-15T11:53:25.286Z,14.10
2023-05-15T11:56:18.691Z,14.00
2023-05-15T11:59:06.473Z,14.10
2023-05-15T12:01:54.151Z,14.20
2023-05-15T12:04:42.649Z,14.10
2023-05-15T12:07:30.159Z,13.90
2023-05-15T12:10:18.392Z,13.80
2023-05-15T12:13:08.624Z,13.70
2023-05-15T12:15:57.020Z,13.50
2023-05-15T12:18:45.407Z,13.70
2023-05-15T12:21:34.257Z,13.80
2023-05-15T12:24:23.824Z,13.90
2023-05-15T12:27:12.091Z,14.00
2023-05-15T12:30:02.732Z,14.00
2023-05-15T12:32:51.192Z,13.80
2023-05-15T12:35:43.246Z,14.30
2023-05-15T12:38:34.093Z,13.70
2023-05-15T12:41:22.236Z,13.90
2023-05-15T12:44:16.884Z,14.10
2023-05-15T12:47:06.624Z,14.20
2023-05-15T12:49:56.898Z,14.20
2023-05-15T12:52:49.276Z,14.10
2023-05-15T12:55:38.057Z,14.00
2023-05-15T12:58:26.689Z,13.70
2023-05-15T13:01:17.524Z,13.60
2023-05-15T13:04:07.360Z,13.50
2023-05-15T13:06:56.207Z,13.60
2023-05-15T13:09:45.103Z,13.60
2023-05-15T13:12:36.673Z,13.40
2023-05-15T13:15:30.502Z,13.40
2023-05-15T13:18:18.693Z,13.50
2023-05-15T13:21:08.496Z,13.60
2023-05-15T13:23:56.437Z,13.70
2023-05-15T13:26:44.125Z,13.60
2023-05-15T13:29:32.459Z,13.80
2023-05-15T13:32:19.997Z,13.60
2023-05-15T13:35:08.697Z,13.60
2023-05-15T13:37:58.065Z,13.40
2023-05-15T13:40:46.264Z,13.30
2023-05-15T13:43:34.270Z,13.40
2023-05-15T13:46:22.775Z,13.20
2023-05-15T13:49:11.501Z,13.10
2023-05-15T13:51:59.530Z,12.80
2023-05-15T13:54:48.481Z,12.60
2023-05-15T13:57:37.574Z,12.50
2023-05-15T14:00:26.513Z,12.90
2023-05-15T14:03:37.439Z,12.20
2023-05-15T14:06:28.724Z,12.70
2023-05-15T14:09:17.176Z,12.90
2023-05-15T14:12:06.362Z,12.40
2023-05-15T14:14:56.192Z,12.40
2023-05-15T14:17:44.376Z,12.40
2023-05-15T14:20:32.227Z,10.60
2023-05-15T14:23:20.582Z,12.20
2023-05-15T14:26:13.077Z,12.20
2023-05-15T14:29:08.914Z,12.20
2023-05-15T14:31:56.872Z,12.20
2023-05-15T14:34:45.206Z,12.10
2023-05-15T14:40:26.731Z,11.90
2023-05-15T14:43:14.672Z,11.90
2023-05-15T14:46:11.520Z,12.00
2023-05-15T14:48:59.472Z,12.40
2023-05-15T14:51:47.698Z,11.90
2023-05-15T14:54:35.725Z,11.30
2023-05-15T14:57:23.986Z,11.90
2023-05-15T15:00:13.478Z,11.80
2023-05-15T15:03:03.817Z,11.70
2023-05-15T15:05:54.761Z,11.60
2023-05-15T15:08:43.005Z,11.70
2023-05-15T15:11:32.650Z,11.60
2023-05-15T15:14:21.332Z,13.30
2023-05-15T15:17:12.556Z,11.40
2023-05-15T15:20:03.219Z,11.40
2023-05-15T15:22:51.568Z,11.40
2023-05-15T15:25:39.557Z,11.40
2023-05-15T15:28:29.389Z,11.50
2023-05-15T15:31:17.010Z,11.60
2023-05-15T15:34:05.962Z,11.60
2023-05-15T15:36:55.659Z,11.60
2023-05-15T15:39:43.711Z,11.60
2023-05-15T15:42:31.872Z,11.60
2023-05-15T15:45:20.162Z,11.60
2023-05-15T15:48:08.178Z,11.50
2023-05-15T15:50:55.694Z,11.20
2023-05-15T15:53:44.634Z,11.40
2023-05-15T15:56:33.104Z,11.40
2023-05-15T15:59:21.705Z,11.40
2023-05-15T16:02:14.915Z,12.00
2023-05-15T16:05:03.669Z,12.10
2023-05-15T16:07:53.974Z,11.20
2023-05-15T16:10:45.769Z,11.30
2023-05-15T16:13:33.904Z,10.60
2023-05-15T16:16:21.799Z,11.10
2023-05-15T16:19:12.214Z,10.60
2023-05-15T16:22:00.324Z,11.70
2023-05-15T16:24:48.857Z,11.10
2023-05-15T16:27:38.348Z,11.10
2023-05-15T16:30:33.670Z,11.20
2023-05-15T16:33:33.142Z,11.10
2023-05-15T16:36:21.445Z,12.30
2023-05-15T16:39:09.385Z,11.80
2023-05-15T16:41:57.343Z,12.20
2023-05-15T16:44:46.139Z,11.20
2023-05-15T16:47:34.327Z,11.30
2023-05-15T16:50:22.282Z,11.30
2023-05-15T16:53:12.830Z,11.40
2023-05-15T16:56:00.605Z,11.40
2023-05-15T16:58:48.206Z,11.40
2023-05-15T17:01:39.591Z,11.40
2023-05-15T17:04:27.430Z,10.60
2023-05-15T17:07:16.166Z,11.40
2023-05-15T17:10:04.104Z,11.20
2023-05-15T17:12:51.936Z,11.40
2023-05-15T17:15:40.275Z,11.50
2023-05-15T17:18:34.774Z,11.40
2023-05-15T17:21:23.592Z,11.60
2023-05-15T17:24:11.243Z,11.30
2023-05-15T17:26:58.532Z,11.40
2023-05-15T17:29:46.149Z,11.20
2023-05-15T17:32:34.891Z,11.20
2023-05-15T17:35:24.277Z,11.10
2023-05-15T17:38:12.741Z,11.00
2023-05-15T17:41:00.540Z,11.00
2023-05-15T17:43:49.593Z,10.90
2023-05-15T17:46:37.530Z,10.90
2023-05-15T17:49:26.427Z,11.00
2023-05-15T17:52:17.170Z,10.80
2023-05-15T17:55:04.678Z,10.70
2023-05-15T17:57:52.261Z,10.70
2023-05-15T18:00:40.300Z,10.60
2023-05-15T18:03:27.759Z,10.60
2023-05-15T18:06:15.723Z,10.60
2023-05-15T18:09:05.331Z,9.90
2023-05-15T18:11:53.245Z,10.50
2023-05-15T18:14:40.807Z,10.60
2023-05-15T18:17:28.876Z,10.50
2023-05-15T18:20:19.515Z,10.50
2023-05-15T18:23:07.575Z,10.50
2023-05-15T18:25:56.379Z,10.50
2023-05-15T18:28:43.874Z,10.50
2023-05-15T18:31:34.471Z,10.40
2023-05-15T18:34:22.170Z,10.40
2023-05-15T18:37:10.217Z,10.40
2023-05-15T18:39:58.923Z,10.40
2023-05-15T18:42:48.000Z,10.30
2023-05-15T18:45:35.747Z,10.30
2023-05-15T18:48:23.891Z,10.30
2023-05-15T18:51:11.646Z,10.30
2023-05-15T18:53:58.794Z,10.30
2023-05-15T18:56:46.386Z,10.30
2023-05-15T18:59:35.344Z,10.30
2023-05-15T19:02:25.194Z,10.20
2023-05-15T19:05:13.781Z,10.20
2023-05-15T19:08:01.300Z,10.20
2023-05-15T19:10:49.025Z,10.10
2023-05-15T19:13:37.256Z,10.10
2023-05-15T19:16:28.817Z,10.10
2023-05-15T19:19:17.134Z,10.00
2023-05-15T19:22:04.589Z,10.10
2023-05-15T19:24:54.139Z,10.00
2023-05-15T19:27:41.734Z,10.00
2023-05-15T19:30:30.975Z,10.00
2023-05-15T19:33:20.109Z,10.00
2023-05-15T19:36:07.882Z,10.00
2023-05-15T19:38:55.356Z,10.00
2023-05-15T19:41:43.863Z,9.90
2023-05-15T19:44:31.921Z,10.00
2023-05-15T19:47:19.964Z,9.90
2023-05-15T19:50:10.239Z,9.90
2023-05-15T19:52:58.410Z,10.40
2023-05-15T19:55:46.346Z,9.90
2023-05-15T19:58:34.018Z,10.50
2023-05-15T20:01:24.000Z,10.00
2023-05-15T20:04:13.671Z,10.00
2023-05-15T20:07:06.491Z,10.00
2023-05-15T20:09:54.240Z,10.00
2023-05-15T20:12:41.749Z,10.00
2023-05-15T20:15:29.610Z,10.00
2023-05-15T20:18:17.539Z,10.00
2023-05-15T20:21:05.857Z,10.00
2023-05-15T20:23:56.755Z,9.90
2023-05-15T20:26:45.026Z,9.90
2023-05-15T20:29:33.326Z,10.00
2023-05-15T20:32:21.009Z,9.90
2023-05-15T20:35:09.536Z,10.60
2023-05-15T20:37:57.778Z,9.90
2023-05-15T20:40:47.232Z,9.80
2023-05-15T20:43:35.969Z,9.90
2023-05-15T20:46:28.248Z,9.90
2023-05-15T20:49:17.761Z,9.90
2023-05-15T20:52:06.119Z,9.60
2023-05-15T20:54:54.213Z,10.20
2023-05-15T20:57:43.993Z,10.50
2023-05-15T21:00:34.060Z,10.00
2023-05-15T21:03:23.465Z,9.90
2023-05-15T21:06:12.143Z,9.90
2023-05-15T21:09:00.015Z,9.90
2023-05-15T21:11:48.170Z,9.90
2023-05-15T21:14:37.410Z,9.90
2023-05-15T21:17:25.240Z,9.80
2023-05-15T21:20:12.972Z,9.80
2023-05-15T21:23:01.135Z,9.90
2023-05-15T21:25:48.833Z,9.80
2023-05-15T21:28:36.582Z,9.80
2023-05-15T21:31:25.397Z,9.80
2023-05-15T21:34:13.788Z,10.10
2023-05-15T21:37:01.375Z,10.00
2023-05-15T21:39:48.921Z,9.80
2023-05-15T21:42:36.172Z,9.80
2023-05-15T21:45:23.865Z,9.80
2023-05-15T21:48:13.077Z,8.40
2023-05-15T21:51:04.459Z,9.80
2023-05-15T21:53:52.180Z,9.80
2023-05-15T21:56:41.322Z,9.80
2023-05-15T21:59:29.598Z,9.80
2023-05-15T22:02:17.882Z,9.80
2023-05-15T22:05:07.708Z,9.80
2023-05-15T22:07:56.375Z,9.70
2023-05-15T22:10:44.243Z,9.80
2023-05-15T22:13:32.298Z,9.70
2023-05-15T22:16:20.477Z,9.80
2023-05-15T22:19:18.495Z,9.80
2023-05-15T22:22:17.809Z,9.70
2023-05-15T22:25:05.855Z,9.70
2023-05-15T22:27:53.556Z,9.70
2023-05-15T22:30:42.006Z,9.70
2023-05-15T22:33:29.254Z,9.70
2023-05-15T22:36:21.476Z,9.70
2023-05-15T22:39:11.082Z,8.30
2023-05-15T22:41:59.360Z,9.80
2023-05-15T22:44:47.997Z,9.60
2023-05-15T22:47:35.614Z,9.60
2023-05-15T22:50:24.380Z,9.60
2023-05-15T22:53:12.483Z,9.60
2023-05-15T22:56:02.564Z,9.60
2023-05-15T22:58:51.768Z,9.60
2023-05-15T23:01:49.314Z,9.50
2023-05-15T23:07:25.601Z,9.50
2023-05-15T23:10:13.246Z,9.50
2023-05-15T23:13:03.646Z,9.20
2023-05-15T23:18:39.670Z,9.30
2023-05-15T23:21:27.481Z,9.20
2023-05-15T23:24:15.266Z,9.20
2023-05-15T23:27:04.752Z,9.20
2023-05-15T23:29:54.448Z,9.10
2023-05-15T23:32:42.397Z,9.00
2023-05-15T23:35:32.694Z,9.10
2023-05-15T23:38:23.573Z,7.20
2023-05-15T23:41:11.235Z,8.90
2023-05-15T23:43:59.619Z,9.00
2023-05-15T23:46:49.063Z,8.80
2023-05-15T23:49:36.448Z,9.00
2023-05-15T23:52:24.252Z,9.00
2023-05-15T23:55:12.838Z,8.90
2023-05-15T23:58:00.216Z,9.00
